F/V Vivaldi — FQLH — position and weather

sailwx.info

Track history (hours):
 
Tides and Currents Weather Stations Pressure Air Temp Water Temp Dewpoint Dewpoint Depression Visibility Wind Speed Wind Dir Waves Ship Positions

F/V Vivaldi

Last reported at 2018-Feb-18 18:08 UTC. Time now 2018-Feb-23 12:59 UTC.
Position N 47°50' W 004°59'.

Length 23 m.

Type: Fishing. MMSI: 227981000.

Date/timePositionNaut miles runAvg speedWind from/ knotsBaromVisibWave heightAir tempDewpointWater temp
2018-Feb-18 18:08N 47°50' W 004°59'1 9.7
2018-Feb-18 18:00N 47°51' W 004°58'5 9.5
2018-Feb-18 17:30N 47°54' W 004°54'5 9.4
2018-Feb-18 16:57N 47°59' W 004°49'4 9.0
2018-Feb-18 16:30N 48°02' W 004°46'4 8.7
2018-Feb-18 16:00N 48°05' W 004°42'5 9.1
2018-Feb-18 15:30N 48°06' W 004°35'4 8.9
2018-Feb-18 15:00N 48°07' W 004°29'5 9.2
2018-Feb-18 14:30N 48°07' W 004°22'2 3.9
2018-Feb-18 14:00N 48°06' W 004°20'0 0.0
2018-Feb-18 13:30N 48°06' W 004°20'0 0.0
2018-Feb-18 13:00N 48°06' W 004°20'0 0.0
2018-Feb-18 12:30N 48°06' W 004°20'0 0.0
2018-Feb-18 12:00N 48°06' W 004°20'0 0.0
2018-Feb-18 11:30N 48°06' W 004°20'0 0.0
2018-Feb-18 11:00N 48°06' W 004°20'0 0.0
2018-Feb-18 10:30N 48°06' W 004°20'0 0.0
2018-Feb-18 10:00N 48°06' W 004°20'0 0.0
2018-Feb-18 09:28N 48°06' W 004°20'0 0.1
2018-Feb-18 08:57N 48°06' W 004°20'0 0.0
2018-Feb-18 08:30N 48°06' W 004°20'0 0.1
2018-Feb-18 08:00N 48°06' W 004°20'0 0.0
2018-Feb-18 07:28N 48°06' W 004°20'0 0.0
2018-Feb-18 07:00N 48°06' W 004°20'0 0.0
2018-Feb-18 06:30N 48°06' W 004°20'0 0.0
2018-Feb-18 06:00N 48°06' W 004°20'0 0.0
2018-Feb-18 05:30N 48°06' W 004°20'0 0.0
2018-Feb-18 05:00N 48°06' W 004°20'0 0.0
2018-Feb-18 04:29N 48°06' W 004°20'0 0.0
2018-Feb-18 04:01N 48°06' W 004°20'0 0.0
2018-Feb-18 03:30N 48°06' W 004°20'1 2.6
2018-Feb-18 03:00N 48°07' W 004°21'610.7
2018-Feb-18 02:29N 48°07' W 004°29'511.1
2018-Feb-18 02:00N 48°07' W 004°37'511.0
2018-Feb-18 01:30N 48°05' W 004°44'612.2
2018-Feb-18 01:01N 47°59' W 004°48'611.0
2018-Feb-18 00:29N 47°54' W 004°50'610.4
2018-Feb-17 23:53N 47°48' W 004°52'  
2018-Feb-11 19:50N 47°47' W 004°60'3 9.5
2018-Feb-11 19:30N 47°49' W 004°57'6 9.6
2018-Feb-11 18:55N 47°54' W 004°53'4 9.7
2018-Feb-11 18:28N 47°57' W 004°49'510.8
2018-Feb-11 18:00N 48°02' W 004°46'5 9.1
2018-Feb-11 17:30N 48°05' W 004°42'5 9.2
2018-Feb-11 17:00N 48°07' W 004°35'5 9.1
2018-Feb-11 16:30N 48°07' W 004°28'5 9.1
2018-Feb-11 15:59N 48°07' W 004°21'2 3.2
2018-Feb-11 15:27N 48°06' W 004°20'0 0.0
2018-Feb-11 14:58N 48°06' W 004°20'0 0.0
2018-Feb-11 14:28N 48°06' W 004°20'0 0.0
2018-Feb-11 13:58N 48°06' W 004°20'0 0.1
2018-Feb-11 13:30N 48°06' W 004°20'0 0.0
2018-Feb-11 12:46N 48°06' W 004°20'0 0.0
2018-Feb-11 12:30N 48°06' W 004°20'0 0.0
2018-Feb-11 12:00N 48°06' W 004°20'0 0.1
2018-Feb-11 11:27N 48°06' W 004°20'0 0.0
2018-Feb-11 11:00N 48°06' W 004°20'0 0.0
2018-Feb-11 10:24N 48°06' W 004°20'0 0.0
2018-Feb-11 09:58N 48°06' W 004°20'0 0.0
2018-Feb-11 09:22N 48°06' W 004°20'0 0.0
2018-Feb-11 08:59N 48°06' W 004°20'0 0.0
2018-Feb-11 08:22N 48°06' W 004°20'0 0.0
2018-Feb-11 08:00N 48°06' W 004°20'0 0.0
2018-Feb-11 07:10N 48°06' W 004°20'0 0.0
2018-Feb-11 06:55N 48°06' W 004°20'0 0.0
2018-Feb-11 06:30N 48°06' W 004°20'0 0.0
2018-Feb-11 05:55N 48°06' W 004°20'2 3.8
2018-Feb-11 05:25N 48°07' W 004°22'4 9.2
2018-Feb-11 05:00N 48°07' W 004°27'5 8.9
2018-Feb-11 04:30N 48°07' W 004°34'4 8.7
2018-Feb-11 03:59N 48°06' W 004°41'4 8.3
2018-Feb-11 03:30N 48°04' W 004°46'3 6.4
2018-Feb-11 02:57N 48°01' W 004°47'3 7.2
2018-Feb-11 02:29N 47°57' W 004°48'5 8.3
2018-Feb-11 01:51N 47°52' W 004°50'4 8.4
2018-Feb-11 01:23N 47°48' W 004°52'  
Track history (hours):
 
Tides and Currents Weather Stations Pressure Air Temp Water Temp Dewpoint Dewpoint Depression Visibility Wind Speed Wind Dir Waves Ship Positions

F/V Vivaldi

Last reported at 2018-Feb-18 18:08 UTC. Time now 2018-Feb-23 12:59 UTC.
Position N 47°50' W 004°59'.

Length 23 m.

Type: Fishing. MMSI: 227981000.

Date/timePositionNaut miles runAvg speedWind from/ knotsBaromVisibWave heightAir tempDewpointWater temp
2018-Feb-18 18:08N 47°50' W 004°59'1 9.7
2018-Feb-18 18:00N 47°51' W 004°58'5 9.5
2018-Feb-18 17:30N 47°54' W 004°54'5 9.4
2018-Feb-18 16:57N 47°59' W 004°49'4 9.0
2018-Feb-18 16:30N 48°02' W 004°46'4 8.7
2018-Feb-18 16:00N 48°05' W 004°42'5 9.1
2018-Feb-18 15:30N 48°06' W 004°35'4 8.9
2018-Feb-18 15:00N 48°07' W 004°29'5 9.2
2018-Feb-18 14:30N 48°07' W 004°22'2 3.9
2018-Feb-18 14:00N 48°06' W 004°20'0 0.0
2018-Feb-18 13:30N 48°06' W 004°20'0 0.0
2018-Feb-18 13:00N 48°06' W 004°20'0 0.0
2018-Feb-18 12:30N 48°06' W 004°20'0 0.0
2018-Feb-18 12:00N 48°06' W 004°20'0 0.0
2018-Feb-18 11:30N 48°06' W 004°20'0 0.0
2018-Feb-18 11:00N 48°06' W 004°20'0 0.0
2018-Feb-18 10:30N 48°06' W 004°20'0 0.0
2018-Feb-18 10:00N 48°06' W 004°20'0 0.0
2018-Feb-18 09:28N 48°06' W 004°20'0 0.1
2018-Feb-18 08:57N 48°06' W 004°20'0 0.0
2018-Feb-18 08:30N 48°06' W 004°20'0 0.1
2018-Feb-18 08:00N 48°06' W 004°20'0 0.0
2018-Feb-18 07:28N 48°06' W 004°20'0 0.0
2018-Feb-18 07:00N 48°06' W 004°20'0 0.0
2018-Feb-18 06:30N 48°06' W 004°20'0 0.0
2018-Feb-18 06:00N 48°06' W 004°20'0 0.0
2018-Feb-18 05:30N 48°06' W 004°20'0 0.0
2018-Feb-18 05:00N 48°06' W 004°20'0 0.0
2018-Feb-18 04:29N 48°06' W 004°20'0 0.0
2018-Feb-18 04:01N 48°06' W 004°20'0 0.0
2018-Feb-18 03:30N 48°06' W 004°20'1 2.6
2018-Feb-18 03:00N 48°07' W 004°21'610.7
2018-Feb-18 02:29N 48°07' W 004°29'511.1
2018-Feb-18 02:00N 48°07' W 004°37'511.0
2018-Feb-18 01:30N 48°05' W 004°44'612.2
2018-Feb-18 01:01N 47°59' W 004°48'611.0
2018-Feb-18 00:29N 47°54' W 004°50'610.4
2018-Feb-17 23:53N 47°48' W 004°52'  
2018-Feb-11 19:50N 47°47' W 004°60'3 9.5
2018-Feb-11 19:30N 47°49' W 004°57'6 9.6
2018-Feb-11 18:55N 47°54' W 004°53'4 9.7
2018-Feb-11 18:28N 47°57' W 004°49'510.8
2018-Feb-11 18:00N 48°02' W 004°46'5 9.1
2018-Feb-11 17:30N 48°05' W 004°42'5 9.2
2018-Feb-11 17:00N 48°07' W 004°35'5 9.1
2018-Feb-11 16:30N 48°07' W 004°28'5 9.1
2018-Feb-11 15:59N 48°07' W 004°21'2 3.2
2018-Feb-11 15:27N 48°06' W 004°20'0 0.0
2018-Feb-11 14:58N 48°06' W 004°20'0 0.0
2018-Feb-11 14:28N 48°06' W 004°20'0 0.0
2018-Feb-11 13:58N 48°06' W 004°20'0 0.1
2018-Feb-11 13:30N 48°06' W 004°20'0 0.0
2018-Feb-11 12:46N 48°06' W 004°20'0 0.0
2018-Feb-11 12:30N 48°06' W 004°20'0 0.0
2018-Feb-11 12:00N 48°06' W 004°20'0 0.1
2018-Feb-11 11:27N 48°06' W 004°20'0 0.0
2018-Feb-11 11:00N 48°06' W 004°20'0 0.0
2018-Feb-11 10:24N 48°06' W 004°20'0 0.0
2018-Feb-11 09:58N 48°06' W 004°20'0 0.0
2018-Feb-11 09:22N 48°06' W 004°20'0 0.0
2018-Feb-11 08:59N 48°06' W 004°20'0 0.0
2018-Feb-11 08:22N 48°06' W 004°20'0 0.0
2018-Feb-11 08:00N 48°06' W 004°20'0 0.0
2018-Feb-11 07:10N 48°06' W 004°20'0 0.0
2018-Feb-11 06:55N 48°06' W 004°20'0 0.0
2018-Feb-11 06:30N 48°06' W 004°20'0 0.0
2018-Feb-11 05:55N 48°06' W 004°20'2 3.8
2018-Feb-11 05:25N 48°07' W 004°22'4 9.2
2018-Feb-11 05:00N 48°07' W 004°27'5 8.9
2018-Feb-11 04:30N 48°07' W 004°34'4 8.7
2018-Feb-11 03:59N 48°06' W 004°41'4 8.3
2018-Feb-11 03:30N 48°04' W 004°46'3 6.4
2018-Feb-11 02:57N 48°01' W 004°47'3 7.2
2018-Feb-11 02:29N 47°57' W 004°48'5 8.3
2018-Feb-11 01:51N 47°52' W 004°50'4 8.4
2018-Feb-11 01:23N 47°48' W 004°52'  

Dump ship's entire track history